Kasterlee, Belgium
Current Conditions -  °F | °C
As of 1:06 AM on Monday 24 Nov 2014 (Local Time) from EBDT Reporting Station
Overcast Overcast  
Wind Chill: 50°   Ceiling: 700
Heat Index: 50°   Visibility: 2.8mi
Dew Point: 48°   Wind: 13mph
Humidity: 94%   Direction: 320°NW
Pressure: 30.06"   Gusts: NA
Location:  51.24°N, 4.97°E
Report Text: EBDT 240006Z AUTO 32011KT 4600 FEW003/// BKN007/// OVC011/// 10/09 Q1018 GRN
Loading
Personal Weather Stations






























Interactive Weather Map New forecast layout! Learn more

10-Day Weather Forecast

Advertisements
Track Severe Weather on mobile